sensor_id;sensor_type;location;lat;lon;timestamp;temperature;humidity
64501;DHT22;50874;24.150;-110.320;2023-06-22T00:01:19;36.90;55.00
64501;DHT22;50874;24.150;-110.320;2023-06-22T00:03:47;37.00;54.90
64501;DHT22;50874;24.150;-110.320;2023-06-22T00:06:13;37.10;54.80
64501;DHT22;50874;24.150;-110.320;2023-06-22T00:08:40;36.90;54.60
64501;DHT22;50874;24.150;-110.320;2023-06-22T00:11:06;36.80;54.30
64501;DHT22;50874;24.150;-110.320;2023-06-22T00:13:33;36.90;54.40
64501;DHT22;50874;24.150;-110.320;2023-06-22T00:15:59;36.70;54.40
64501;DHT22;50874;24.150;-110.320;2023-06-22T00:18:26;36.70;54.50
64501;DHT22;50874;24.150;-110.320;2023-06-22T00:20:55;36.70;54.30
64501;DHT22;50874;24.150;-110.320;2023-06-22T00:23:24;36.50;54.10
64501;DHT22;50874;24.150;-110.320;2023-06-22T00:25:51;36.50;54.00
64501;DHT22;50874;24.150;-110.320;2023-06-22T00:28:18;36.60;54.00
64501;DHT22;50874;24.150;-110.320;2023-06-22T00:30:45;36.50;53.30
64501;DHT22;50874;24.150;-110.320;2023-06-22T00:33:11;36.30;53.70
64501;DHT22;50874;24.150;-110.320;2023-06-22T00:35:38;36.40;54.10
64501;DHT22;50874;24.150;-110.320;2023-06-22T00:38:07;36.20;53.70
64501;DHT22;50874;24.150;-110.320;2023-06-22T00:40:34;36.00;54.00
64501;DHT22;50874;24.150;-110.320;2023-06-22T00:43:00;36.10;53.70
64501;DHT22;50874;24.150;-110.320;2023-06-22T00:45:27;36.00;54.20
64501;DHT22;50874;24.150;-110.320;2023-06-22T00:47:57;36.10;54.20
64501;DHT22;50874;24.150;-110.320;2023-06-22T00:50:26;36.10;53.80
64501;DHT22;50874;24.150;-110.320;2023-06-22T00:52:58;36.10;53.50
64501;DHT22;50874;24.150;-110.320;2023-06-22T00:55:26;35.90;52.60
64501;DHT22;50874;24.150;-110.320;2023-06-22T00:57:53;36.10;52.70
64501;DHT22;50874;24.150;-110.320;2023-06-22T01:00:24;36.10;52.50
64501;DHT22;50874;24.150;-110.320;2023-06-22T01:02:54;36.00;52.50
64501;DHT22;50874;24.150;-110.320;2023-06-22T01:05:21;35.90;52.60
64501;DHT22;50874;24.150;-110.320;2023-06-22T01:10:58;35.70;52.40
64501;DHT22;50874;24.150;-110.320;2023-06-22T01:16:23;35.60;51.70
64501;DHT22;50874;24.150;-110.320;2023-06-22T01:18:53;35.50;51.30
64501;DHT22;50874;24.150;-110.320;2023-06-22T01:21:23;35.60;51.30
64501;DHT22;50874;24.150;-110.320;2023-06-22T01:24:15;35.40;50.30
64501;DHT22;50874;24.150;-110.320;2023-06-22T01:29:26;35.10;50.60
64501;DHT22;50874;24.150;-110.320;2023-06-22T01:31:54;35.10;51.20
64501;DHT22;50874;24.150;-110.320;2023-06-22T01:34:21;35.00;51.20
64501;DHT22;50874;24.150;-110.320;2023-06-22T01:36:50;35.00;50.60
64501;DHT22;50874;24.150;-110.320;2023-06-22T01:39:18;35.00;51.30
64501;DHT22;50874;24.150;-110.320;2023-06-22T01:41:47;34.90;51.90
64501;DHT22;50874;24.150;-110.320;2023-06-22T01:44:14;35.00;52.00
64501;DHT22;50874;24.150;-110.320;2023-06-22T01:46:41;34.90;52.20
64501;DHT22;50874;24.150;-110.320;2023-06-22T01:49:08;34.70;52.70
64501;DHT22;50874;24.150;-110.320;2023-06-22T01:51:35;34.60;53.60
64501;DHT22;50874;24.150;-110.320;2023-06-22T01:54:02;34.50;53.50
64501;DHT22;50874;24.150;-110.320;2023-06-22T01:56:29;34.50;53.60
64501;DHT22;50874;24.150;-110.320;2023-06-22T02:02:02;34.20;54.50
64501;DHT22;50874;24.150;-110.320;2023-06-22T02:04:42;34.20;54.40
64501;DHT22;50874;24.150;-110.320;2023-06-22T02:07:13;34.00;53.90
64501;DHT22;50874;24.150;-110.320;2023-06-22T02:09:44;33.90;55.20
64501;DHT22;50874;24.150;-110.320;2023-06-22T02:12:12;33.90;55.70
64501;DHT22;50874;24.150;-110.320;2023-06-22T02:14:40;33.90;56.00
64501;DHT22;50874;24.150;-110.320;2023-06-22T02:17:09;33.80;56.60
64501;DHT22;50874;24.150;-110.320;2023-06-22T02:19:40;33.80;55.70
64501;DHT22;50874;24.150;-110.320;2023-06-22T02:22:07;33.70;55.20
64501;DHT22;50874;24.150;-110.320;2023-06-22T02:24:33;33.80;55.10
64501;DHT22;50874;24.150;-110.320;2023-06-22T02:27:01;33.70;54.40
64501;DHT22;50874;24.150;-110.320;2023-06-22T02:29:28;33.70;54.20
64501;DHT22;50874;24.150;-110.320;2023-06-22T02:31:55;33.60;54.20
64501;DHT22;50874;24.150;-110.320;2023-06-22T02:34:22;33.60;53.90
64501;DHT22;50874;24.150;-110.320;2023-06-22T02:36:49;33.60;53.90
64501;DHT22;50874;24.150;-110.320;2023-06-22T02:39:23;33.50;53.80
64501;DHT22;50874;24.150;-110.320;2023-06-22T02:41:50;33.40;54.40
64501;DHT22;50874;24.150;-110.320;2023-06-22T02:44:17;33.40;53.90
64501;DHT22;50874;24.150;-110.320;2023-06-22T02:46:44;33.50;53.80
64501;DHT22;50874;24.150;-110.320;2023-06-22T02:49:11;33.40;53.70
64501;DHT22;50874;24.150;-110.320;2023-06-22T02:51:48;33.40;54.30
64501;DHT22;50874;24.150;-110.320;2023-06-22T02:54:15;33.40;54.40
64501;DHT22;50874;24.150;-110.320;2023-06-22T02:56:42;33.40;54.40
64501;DHT22;50874;24.150;-110.320;2023-06-22T02:59:12;33.40;54.30
64501;DHT22;50874;24.150;-110.320;2023-06-22T03:01:38;33.40;54.30
64501;DHT22;50874;24.150;-110.320;2023-06-22T03:04:08;33.40;53.20
64501;DHT22;50874;24.150;-110.320;2023-06-22T03:06:35;33.30;52.10
64501;DHT22;50874;24.150;-110.320;2023-06-22T03:09:03;33.30;51.40
64501;DHT22;50874;24.150;-110.320;2023-06-22T03:11:34;33.30;52.10
64501;DHT22;50874;24.150;-110.320;2023-06-22T03:14:01;33.30;51.70
64501;DHT22;50874;24.150;-110.320;2023-06-22T03:16:27;33.30;51.30
64501;DHT22;50874;24.150;-110.320;2023-06-22T03:18:55;33.20;51.40
64501;DHT22;50874;24.150;-110.320;2023-06-22T03:21:23;33.30;51.70
64501;DHT22;50874;24.150;-110.320;2023-06-22T03:23:49;33.30;52.10
64501;DHT22;50874;24.150;-110.320;2023-06-22T03:26:19;33.20;52.10
64501;DHT22;50874;24.150;-110.320;2023-06-22T03:28:46;33.20;52.70
64501;DHT22;50874;24.150;-110.320;2023-06-22T03:31:12;33.10;52.90
64501;DHT22;50874;24.150;-110.320;2023-06-22T03:33:39;33.10;53.40
64501;DHT22;50874;24.150;-110.320;2023-06-22T03:36:05;33.10;53.80
64501;DHT22;50874;24.150;-110.320;2023-06-22T03:38:32;33.00;53.70
64501;DHT22;50874;24.150;-110.320;2023-06-22T03:40:59;33.00;53.60
64501;DHT22;50874;24.150;-110.320;2023-06-22T03:43:28;33.00;53.30
64501;DHT22;50874;24.150;-110.320;2023-06-22T03:45:55;33.00;53.90
64501;DHT22;50874;24.150;-110.320;2023-06-22T03:48:21;33.00;54.00
64501;DHT22;50874;24.150;-110.320;2023-06-22T03:50:48;32.90;53.80
64501;DHT22;50874;24.150;-110.320;2023-06-22T03:53:14;32.90;53.30
64501;DHT22;50874;24.150;-110.320;2023-06-22T03:55:48;32.80;52.30
64501;DHT22;50874;24.150;-110.320;2023-06-22T03:58:16;32.90;52.40
64501;DHT22;50874;24.150;-110.320;2023-06-22T04:00:51;32.90;51.50
64501;DHT22;50874;24.150;-110.320;2023-06-22T04:03:18;33.00;48.50
64501;DHT22;50874;24.150;-110.320;2023-06-22T04:05:45;32.90;48.40
64501;DHT22;50874;24.150;-110.320;2023-06-22T04:08:13;32.90;48.90
64501;DHT22;50874;24.150;-110.320;2023-06-22T04:10:40;32.90;48.60
64501;DHT22;50874;24.150;-110.320;2023-06-22T04:13:07;32.90;48.70
64501;DHT22;50874;24.150;-110.320;2023-06-22T04:15:33;32.90;48.60
64501;DHT22;50874;24.150;-110.320;2023-06-22T04:18:00;33.10;46.10
64501;DHT22;50874;24.150;-110.320;2023-06-22T04:20:26;33.10;46.90
64501;DHT22;50874;24.150;-110.320;2023-06-22T04:22:53;33.10;46.30
64501;DHT22;50874;24.150;-110.320;2023-06-22T04:25:20;33.20;46.90
64501;DHT22;50874;24.150;-110.320;2023-06-22T04:27:47;33.20;47.30
64501;DHT22;50874;24.150;-110.320;2023-06-22T04:30:14;33.10;48.20
64501;DHT22;50874;24.150;-110.320;2023-06-22T04:32:44;33.10;48.30
64501;DHT22;50874;24.150;-110.320;2023-06-22T04:35:11;33.00;47.20
64501;DHT22;50874;24.150;-110.320;2023-06-22T04:37:38;33.00;48.20
64501;DHT22;50874;24.150;-110.320;2023-06-22T04:40:06;33.00;48.10
64501;DHT22;50874;24.150;-110.320;2023-06-22T04:42:35;32.90;48.40
64501;DHT22;50874;24.150;-110.320;2023-06-22T04:45:03;32.90;48.60
64501;DHT22;50874;24.150;-110.320;2023-06-22T04:47:30;32.80;48.90
64501;DHT22;50874;24.150;-110.320;2023-06-22T04:49:57;32.80;47.90
64501;DHT22;50874;24.150;-110.320;2023-06-22T04:52:23;32.70;46.90
64501;DHT22;50874;24.150;-110.320;2023-06-22T04:54:50;32.70;47.50
64501;DHT22;50874;24.150;-110.320;2023-06-22T04:57:23;32.70;47.40
64501;DHT22;50874;24.150;-110.320;2023-06-22T04:59:56;32.70;47.00
64501;DHT22;50874;24.150;-110.320;2023-06-22T05:02:23;32.60;47.30
64501;DHT22;50874;24.150;-110.320;2023-06-22T05:04:57;32.60;47.40
64501;DHT22;50874;24.150;-110.320;2023-06-22T05:07:24;32.60;47.30
64501;DHT22;50874;24.150;-110.320;2023-06-22T05:09:51;32.60;47.40
64501;DHT22;50874;24.150;-110.320;2023-06-22T05:12:17;32.50;47.20
64501;DHT22;50874;24.150;-110.320;2023-06-22T05:14:44;32.50;46.50
64501;DHT22;50874;24.150;-110.320;2023-06-22T05:17:10;32.50;47.30
64501;DHT22;50874;24.150;-110.320;2023-06-22T05:19:40;32.40;47.50
64501;DHT22;50874;24.150;-110.320;2023-06-22T05:22:10;32.40;47.80
64501;DHT22;50874;24.150;-110.320;2023-06-22T05:24:38;32.30;47.80
64501;DHT22;50874;24.150;-110.320;2023-06-22T05:27:05;32.30;47.80
64501;DHT22;50874;24.150;-110.320;2023-06-22T05:29:31;32.20;48.30
64501;DHT22;50874;24.150;-110.320;2023-06-22T05:31:57;32.10;48.20
64501;DHT22;50874;24.150;-110.320;2023-06-22T05:34:24;32.10;48.50
64501;DHT22;50874;24.150;-110.320;2023-06-22T05:36:50;32.10;48.60
64501;DHT22;50874;24.150;-110.320;2023-06-22T05:39:17;32.00;48.70
64501;DHT22;50874;24.150;-110.320;2023-06-22T05:41:45;32.00;48.80
64501;DHT22;50874;24.150;-110.320;2023-06-22T05:44:11;32.00;49.10
64501;DHT22;50874;24.150;-110.320;2023-06-22T05:46:42;31.90;49.50
64501;DHT22;50874;24.150;-110.320;2023-06-22T05:49:12;31.90;49.80
64501;DHT22;50874;24.150;-110.320;2023-06-22T05:51:39;31.80;50.00
64501;DHT22;50874;24.150;-110.320;2023-06-22T05:54:06;31.70;50.10
64501;DHT22;50874;24.150;-110.320;2023-06-22T05:56:34;31.70;50.20
64501;DHT22;50874;24.150;-110.320;2023-06-22T05:59:00;31.70;50.50
64501;DHT22;50874;24.150;-110.320;2023-06-22T06:01:27;31.70;50.50
64501;DHT22;50874;24.150;-110.320;2023-06-22T06:03:53;31.60;50.80
64501;DHT22;50874;24.150;-110.320;2023-06-22T06:06:19;31.60;51.20
64501;DHT22;50874;24.150;-110.320;2023-06-22T06:08:54;31.60;51.20
64501;DHT22;50874;24.150;-110.320;2023-06-22T06:11:21;31.60;51.30
64501;DHT22;50874;24.150;-110.320;2023-06-22T06:13:48;31.60;51.30
64501;DHT22;50874;24.150;-110.320;2023-06-22T06:16:14;31.50;51.90
64501;DHT22;50874;24.150;-110.320;2023-06-22T06:18:41;31.50;51.50
64501;DHT22;50874;24.150;-110.320;2023-06-22T06:21:07;31.40;59.80
64501;DHT22;50874;24.150;-110.320;2023-06-22T06:23:34;31.30;70.40
64501;DHT22;50874;24.150;-110.320;2023-06-22T06:26:00;31.20;77.20
64501;DHT22;50874;24.150;-110.320;2023-06-22T06:28:27;31.10;77.20
64501;DHT22;50874;24.150;-110.320;2023-06-22T06:30:53;31.00;81.30
64501;DHT22;50874;24.150;-110.320;2023-06-22T06:33:20;30.80;84.80
64501;DHT22;50874;24.150;-110.320;2023-06-22T06:35:47;30.80;73.00
64501;DHT22;50874;24.150;-110.320;2023-06-22T06:38:13;30.70;67.10
64501;DHT22;50874;24.150;-110.320;2023-06-22T06:40:39;30.70;78.20
64501;DHT22;50874;24.150;-110.320;2023-06-22T06:43:06;30.70;89.40
64501;DHT22;50874;24.150;-110.320;2023-06-22T06:45:33;30.50;88.90
64501;DHT22;50874;24.150;-110.320;2023-06-22T06:48:00;30.40;90.70
64501;DHT22;50874;24.150;-110.320;2023-06-22T06:50:27;30.30;92.60
64501;DHT22;50874;24.150;-110.320;2023-06-22T06:52:54;30.20;95.30
64501;DHT22;50874;24.150;-110.320;2023-06-22T06:55:20;30.10;98.30
64501;DHT22;50874;24.150;-110.320;2023-06-22T06:57:49;30.00;99.90
64501;DHT22;50874;24.150;-110.320;2023-06-22T07:00:17;29.90;99.90
64501;DHT22;50874;24.150;-110.320;2023-06-22T07:02:44;29.80;99.90
64501;DHT22;50874;24.150;-110.320;2023-06-22T07:05:11;29.70;99.90
64501;DHT22;50874;24.150;-110.320;2023-06-22T07:07:38;29.60;99.90
64501;DHT22;50874;24.150;-110.320;2023-06-22T07:10:06;29.50;99.90
64501;DHT22;50874;24.150;-110.320;2023-06-22T07:12:32;29.40;99.90
64501;DHT22;50874;24.150;-110.320;2023-06-22T07:15:09;29.40;99.90
64501;DHT22;50874;24.150;-110.320;2023-06-22T07:17:36;29.30;99.90
64501;DHT22;50874;24.150;-110.320;2023-06-22T07:20:04;29.20;99.90
64501;DHT22;50874;24.150;-110.320;2023-06-22T07:22:42;29.20;99.90
64501;DHT22;50874;24.150;-110.320;2023-06-22T07:25:09;29.20;99.90
64501;DHT22;50874;24.150;-110.320;2023-06-22T07:27:37;29.20;99.90
64501;DHT22;50874;24.150;-110.320;2023-06-22T07:30:05;29.10;99.90
64501;DHT22;50874;24.150;-110.320;2023-06-22T07:32:32;29.10;99.90
64501;DHT22;50874;24.150;-110.320;2023-06-22T07:34:58;29.00;99.90
64501;DHT22;50874;24.150;-110.320;2023-06-22T07:37:24;29.00;99.90
64501;DHT22;50874;24.150;-110.320;2023-06-22T07:39:53;29.00;99.90
64501;DHT22;50874;24.150;-110.320;2023-06-22T07:42:27;28.90;99.90
64501;DHT22;50874;24.150;-110.320;2023-06-22T07:44:56;28.90;99.90
64501;DHT22;50874;24.150;-110.320;2023-06-22T07:47:22;28.90;99.90
64501;DHT22;50874;24.150;-110.320;2023-06-22T07:49:52;28.80;99.90
64501;DHT22;50874;24.150;-110.320;2023-06-22T07:52:20;28.70;99.90
64501;DHT22;50874;24.150;-110.320;2023-06-22T07:54:47;28.70;99.90
64501;DHT22;50874;24.150;-110.320;2023-06-22T07:57:14;28.70;99.90
64501;DHT22;50874;24.150;-110.320;2023-06-22T07:59:40;28.70;99.90
64501;DHT22;50874;24.150;-110.320;2023-06-22T08:02:07;28.60;99.90
64501;DHT22;50874;24.150;-110.320;2023-06-22T08:04:34;28.60;99.90
64501;DHT22;50874;24.150;-110.320;2023-06-22T08:07:01;28.60;99.90
64501;DHT22;50874;24.150;-110.320;2023-06-22T08:09:32;28.60;99.90
64501;DHT22;50874;24.150;-110.320;2023-06-22T08:11:59;28.50;99.90
64501;DHT22;50874;24.150;-110.320;2023-06-22T08:14:26;28.50;99.90
64501;DHT22;50874;24.150;-110.320;2023-06-22T08:16:53;28.50;99.90
64501;DHT22;50874;24.150;-110.320;2023-06-22T08:19:19;28.50;99.90
64501;DHT22;50874;24.150;-110.320;2023-06-22T08:21:46;28.40;99.90
64501;DHT22;50874;24.150;-110.320;2023-06-22T08:24:12;28.40;99.90
64501;DHT22;50874;24.150;-110.320;2023-06-22T08:26:39;28.40;99.90
64501;DHT22;50874;24.150;-110.320;2023-06-22T08:29:05;28.40;99.90
64501;DHT22;50874;24.150;-110.320;2023-06-22T08:31:32;28.40;99.90
64501;DHT22;50874;24.150;-110.320;2023-06-22T08:34:01;28.30;99.90
64501;DHT22;50874;24.150;-110.320;2023-06-22T08:36:28;28.30;99.90
64501;DHT22;50874;24.150;-110.320;2023-06-22T08:38:59;28.30;99.90
64501;DHT22;50874;24.150;-110.320;2023-06-22T08:41:27;28.20;99.90
64501;DHT22;50874;24.150;-110.320;2023-06-22T08:43:53;28.20;99.90
64501;DHT22;50874;24.150;-110.320;2023-06-22T08:46:20;28.10;99.90
64501;DHT22;50874;24.150;-110.320;2023-06-22T08:48:49;27.90;99.90
64501;DHT22;50874;24.150;-110.320;2023-06-22T08:51:16;27.80;99.90
64501;DHT22;50874;24.150;-110.320;2023-06-22T08:53:43;27.60;99.90
64501;DHT22;50874;24.150;-110.320;2023-06-22T08:56:11;27.50;99.90
64501;DHT22;50874;24.150;-110.320;2023-06-22T08:58:37;27.50;99.90
64501;DHT22;50874;24.150;-110.320;2023-06-22T09:01:04;27.50;99.90
64501;DHT22;50874;24.150;-110.320;2023-06-22T09:03:30;27.50;94.60
64501;DHT22;50874;24.150;-110.320;2023-06-22T09:05:59;27.50;92.40
64501;DHT22;50874;24.150;-110.320;2023-06-22T09:08:25;27.50;90.10
64501;DHT22;50874;24.150;-110.320;2023-06-22T09:10:51;27.50;85.90
64501;DHT22;50874;24.150;-110.320;2023-06-22T09:13:18;27.50;81.60
64501;DHT22;50874;24.150;-110.320;2023-06-22T09:15:44;27.50;82.40
64501;DHT22;50874;24.150;-110.320;2023-06-22T09:18:13;27.50;84.10
64501;DHT22;50874;24.150;-110.320;2023-06-22T09:20:39;27.50;84.20
64501;DHT22;50874;24.150;-110.320;2023-06-22T09:23:06;27.50;83.90
64501;DHT22;50874;24.150;-110.320;2023-06-22T09:25:33;27.40;86.60
64501;DHT22;50874;24.150;-110.320;2023-06-22T09:27:59;27.30;84.40
64501;DHT22;50874;24.150;-110.320;2023-06-22T09:30:26;27.20;82.40
64501;DHT22;50874;24.150;-110.320;2023-06-22T09:32:52;27.00;79.00
64501;DHT22;50874;24.150;-110.320;2023-06-22T09:35:20;27.00;76.90
64501;DHT22;50874;24.150;-110.320;2023-06-22T09:37:46;27.00;76.70
64501;DHT22;50874;24.150;-110.320;2023-06-22T09:40:13;27.00;76.20
64501;DHT22;50874;24.150;-110.320;2023-06-22T09:42:42;27.00;74.00
64501;DHT22;50874;24.150;-110.320;2023-06-22T09:45:09;27.00;72.80
64501;DHT22;50874;24.150;-110.320;2023-06-22T09:47:36;26.90;71.80
64501;DHT22;50874;24.150;-110.320;2023-06-22T09:50:03;27.00;71.30
64501;DHT22;50874;24.150;-110.320;2023-06-22T09:52:30;27.00;72.10
64501;DHT22;50874;24.150;-110.320;2023-06-22T09:54:56;27.00;72.70
64501;DHT22;50874;24.150;-110.320;2023-06-22T09:57:23;27.00;74.20
64501;DHT22;50874;24.150;-110.320;2023-06-22T09:59:50;27.00;74.60
64501;DHT22;50874;24.150;-110.320;2023-06-22T10:02:16;27.00;74.50
64501;DHT22;50874;24.150;-110.320;2023-06-22T10:04:43;27.00;75.40
64501;DHT22;50874;24.150;-110.320;2023-06-22T10:07:09;27.00;76.00
64501;DHT22;50874;24.150;-110.320;2023-06-22T10:09:36;27.00;76.30
64501;DHT22;50874;24.150;-110.320;2023-06-22T10:12:02;27.00;76.70
64501;DHT22;50874;24.150;-110.320;2023-06-22T10:14:29;27.00;76.80
64501;DHT22;50874;24.150;-110.320;2023-06-22T10:16:55;27.00;77.00
64501;DHT22;50874;24.150;-110.320;2023-06-22T10:19:22;27.00;77.10
64501;DHT22;50874;24.150;-110.320;2023-06-22T10:21:48;27.00;77.10
64501;DHT22;50874;24.150;-110.320;2023-06-22T10:24:15;27.00;77.40
64501;DHT22;50874;24.150;-110.320;2023-06-22T10:26:41;27.00;77.50
64501;DHT22;50874;24.150;-110.320;2023-06-22T10:29:08;27.00;77.80
64501;DHT22;50874;24.150;-110.320;2023-06-22T10:31:34;27.00;77.90
64501;DHT22;50874;24.150;-110.320;2023-06-22T10:34:00;27.00;78.00
64501;DHT22;50874;24.150;-110.320;2023-06-22T10:36:27;27.00;78.40
64501;DHT22;50874;24.150;-110.320;2023-06-22T10:38:53;27.00;78.60
64501;DHT22;50874;24.150;-110.320;2023-06-22T10:41:21;27.00;80.40
64501;DHT22;50874;24.150;-110.320;2023-06-22T10:43:48;27.20;80.70
64501;DHT22;50874;24.150;-110.320;2023-06-22T10:46:14;27.30;80.50
64501;DHT22;50874;24.150;-110.320;2023-06-22T10:48:40;27.40;80.10
64501;DHT22;50874;24.150;-110.320;2023-06-22T10:51:07;27.40;81.00
64501;DHT22;50874;24.150;-110.320;2023-06-22T10:53:33;27.30;80.90
64501;DHT22;50874;24.150;-110.320;2023-06-22T10:56:00;27.30;81.80
64501;DHT22;50874;24.150;-110.320;2023-06-22T10:58:26;27.30;82.20
64501;DHT22;50874;24.150;-110.320;2023-06-22T11:00:53;27.20;82.70
64501;DHT22;50874;24.150;-110.320;2023-06-22T11:03:19;27.20;82.80
64501;DHT22;50874;24.150;-110.320;2023-06-22T11:05:45;27.20;83.80
64501;DHT22;50874;24.150;-110.320;2023-06-22T11:08:13;27.20;84.30
64501;DHT22;50874;24.150;-110.320;2023-06-22T11:10:40;27.20;86.30
64501;DHT22;50874;24.150;-110.320;2023-06-22T11:13:06;27.20;86.70
64501;DHT22;50874;24.150;-110.320;2023-06-22T11:15:36;27.10;86.30
64501;DHT22;50874;24.150;-110.320;2023-06-22T11:18:02;27.00;86.70
64501;DHT22;50874;24.150;-110.320;2023-06-22T11:20:31;27.00;87.40
64501;DHT22;50874;24.150;-110.320;2023-06-22T11:23:00;26.90;88.00
64501;DHT22;50874;24.150;-110.320;2023-06-22T11:25:26;26.90;88.50
64501;DHT22;50874;24.150;-110.320;2023-06-22T11:27:54;26.80;88.40
64501;DHT22;50874;24.150;-110.320;2023-06-22T11:30:21;26.70;87.80
64501;DHT22;50874;24.150;-110.320;2023-06-22T11:32:47;26.70;87.50
64501;DHT22;50874;24.150;-110.320;2023-06-22T11:35:14;26.60;87.50
64501;DHT22;50874;24.150;-110.320;2023-06-22T11:37:40;26.60;88.10
64501;DHT22;50874;24.150;-110.320;2023-06-22T11:40:08;26.50;87.80
64501;DHT22;50874;24.150;-110.320;2023-06-22T11:42:35;26.50;88.50
64501;DHT22;50874;24.150;-110.320;2023-06-22T11:45:02;26.50;90.60
64501;DHT22;50874;24.150;-110.320;2023-06-22T11:47:30;26.50;90.70
64501;DHT22;50874;24.150;-110.320;2023-06-22T11:49:57;26.50;91.80
64501;DHT22;50874;24.150;-110.320;2023-06-22T11:52:23;26.40;94.20
64501;DHT22;50874;24.150;-110.320;2023-06-22T11:54:50;26.40;95.20
64501;DHT22;50874;24.150;-110.320;2023-06-22T11:57:16;26.40;97.10
64501;DHT22;50874;24.150;-110.320;2023-06-22T11:59:43;26.30;98.40
64501;DHT22;50874;24.150;-110.320;2023-06-22T12:02:09;26.30;99.80
64501;DHT22;50874;24.150;-110.320;2023-06-22T12:04:36;26.30;99.90
64501;DHT22;50874;24.150;-110.320;2023-06-22T12:07:02;26.30;99.90
64501;DHT22;50874;24.150;-110.320;2023-06-22T12:09:29;26.20;99.90
64501;DHT22;50874;24.150;-110.320;2023-06-22T12:11:55;26.20;99.90
64501;DHT22;50874;24.150;-110.320;2023-06-22T12:14:22;26.20;99.90
64501;DHT22;50874;24.150;-110.320;2023-06-22T12:16:48;26.10;99.90
64501;DHT22;50874;24.150;-110.320;2023-06-22T12:19:14;26.10;99.90
64501;DHT22;50874;24.150;-110.320;2023-06-22T12:21:41;26.00;99.90
64501;DHT22;50874;24.150;-110.320;2023-06-22T12:24:11;26.00;99.90
64501;DHT22;50874;24.150;-110.320;2023-06-22T12:26:37;25.90;99.90
64501;DHT22;50874;24.150;-110.320;2023-06-22T12:29:04;25.90;99.90
64501;DHT22;50874;24.150;-110.320;2023-06-22T12:31:30;25.90;99.90
64501;DHT22;50874;24.150;-110.320;2023-06-22T12:33:57;25.90;99.90
64501;DHT22;50874;24.150;-110.320;2023-06-22T12:36:23;25.90;99.90
64501;DHT22;50874;24.150;-110.320;2023-06-22T12:38:51;25.90;99.90
64501;DHT22;50874;24.150;-110.320;2023-06-22T12:41:17;25.80;99.90
64501;DHT22;50874;24.150;-110.320;2023-06-22T12:43:44;25.80;99.90
64501;DHT22;50874;24.150;-110.320;2023-06-22T12:46:10;25.80;99.90
64501;DHT22;50874;24.150;-110.320;2023-06-22T12:48:37;25.80;99.90
64501;DHT22;50874;24.150;-110.320;2023-06-22T12:51:08;25.80;99.90
64501;DHT22;50874;24.150;-110.320;2023-06-22T12:53:35;25.90;99.90
64501;DHT22;50874;24.150;-110.320;2023-06-22T12:56:01;25.80;99.90
64501;DHT22;50874;24.150;-110.320;2023-06-22T12:58:28;25.90;99.90
64501;DHT22;50874;24.150;-110.320;2023-06-22T13:00:54;26.00;99.90
64501;DHT22;50874;24.150;-110.320;2023-06-22T13:03:21;26.10;99.90
64501;DHT22;50874;24.150;-110.320;2023-06-22T13:05:47;26.20;99.90
64501;DHT22;50874;24.150;-110.320;2023-06-22T13:08:14;26.40;99.90
64501;DHT22;50874;24.150;-110.320;2023-06-22T13:10:40;26.70;99.90
64501;DHT22;50874;24.150;-110.320;2023-06-22T13:13:07;26.90;99.90
64501;DHT22;50874;24.150;-110.320;2023-06-22T13:15:33;27.10;99.90
64501;DHT22;50874;24.150;-110.320;2023-06-22T13:17:59;27.30;99.90
64501;DHT22;50874;24.150;-110.320;2023-06-22T13:20:26;27.70;99.90
64501;DHT22;50874;24.150;-110.320;2023-06-22T13:22:54;28.00;98.70
64501;DHT22;50874;24.150;-110.320;2023-06-22T13:25:21;28.50;98.00
64501;DHT22;50874;24.150;-110.320;2023-06-22T13:27:49;28.80;95.70
64501;DHT22;50874;24.150;-110.320;2023-06-22T13:30:16;29.10;95.20
64501;DHT22;50874;24.150;-110.320;2023-06-22T13:32:42;29.50;94.20
64501;DHT22;50874;24.150;-110.320;2023-06-22T13:35:12;29.80;92.80
64501;DHT22;50874;24.150;-110.320;2023-06-22T13:37:38;30.20;91.50
64501;DHT22;50874;24.150;-110.320;2023-06-22T13:40:06;30.60;90.50
64501;DHT22;50874;24.150;-110.320;2023-06-22T13:42:33;30.90;90.10
64501;DHT22;50874;24.150;-110.320;2023-06-22T13:45:00;31.40;88.90
64501;DHT22;50874;24.150;-110.320;2023-06-22T13:47:26;31.50;83.60
64501;DHT22;50874;24.150;-110.320;2023-06-22T13:49:53;31.50;81.70
64501;DHT22;50874;24.150;-110.320;2023-06-22T13:52:20;31.60;74.70
64501;DHT22;50874;24.150;-110.320;2023-06-22T13:54:46;31.80;73.40
64501;DHT22;50874;24.150;-110.320;2023-06-22T13:57:12;32.20;69.70
64501;DHT22;50874;24.150;-110.320;2023-06-22T13:59:39;32.60;67.60
64501;DHT22;50874;24.150;-110.320;2023-06-22T14:02:06;33.00;65.60
64501;DHT22;50874;24.150;-110.320;2023-06-22T14:04:32;33.20;65.40
64501;DHT22;50874;24.150;-110.320;2023-06-22T14:06:59;33.20;64.60
64501;DHT22;50874;24.150;-110.320;2023-06-22T14:09:25;33.40;64.50
64501;DHT22;50874;24.150;-110.320;2023-06-22T14:11:53;33.60;63.40
64501;DHT22;50874;24.150;-110.320;2023-06-22T14:14:20;33.80;63.20
64501;DHT22;50874;24.150;-110.320;2023-06-22T14:16:46;33.90;62.80
64501;DHT22;50874;24.150;-110.320;2023-06-22T14:19:17;34.20;62.70
64501;DHT22;50874;24.150;-110.320;2023-06-22T14:21:44;34.30;61.80
64501;DHT22;50874;24.150;-110.320;2023-06-22T14:24:10;34.60;62.20
64501;DHT22;50874;24.150;-110.320;2023-06-22T14:26:37;34.60;60.70
64501;DHT22;50874;24.150;-110.320;2023-06-22T14:29:03;34.50;60.40
64501;DHT22;50874;24.150;-110.320;2023-06-22T14:31:30;34.80;60.80
64501;DHT22;50874;24.150;-110.320;2023-06-22T14:33:56;34.80;60.50
64501;DHT22;50874;24.150;-110.320;2023-06-22T14:36:22;34.90;60.20
64501;DHT22;50874;24.150;-110.320;2023-06-22T14:38:49;35.10;60.00
64501;DHT22;50874;24.150;-110.320;2023-06-22T14:41:15;35.60;60.10
64501;DHT22;50874;24.150;-110.320;2023-06-22T14:43:47;35.70;60.10
64501;DHT22;50874;24.150;-110.320;2023-06-22T14:46:20;35.60;59.60
64501;DHT22;50874;24.150;-110.320;2023-06-22T14:48:46;35.60;59.50
64501;DHT22;50874;24.150;-110.320;2023-06-22T14:51:13;35.40;59.90
64501;DHT22;50874;24.150;-110.320;2023-06-22T14:53:40;35.60;59.90
64501;DHT22;50874;24.150;-110.320;2023-06-22T14:56:06;35.60;60.00
64501;DHT22;50874;24.150;-110.320;2023-06-22T14:58:34;35.40;60.40
64501;DHT22;50874;24.150;-110.320;2023-06-22T15:01:02;35.70;60.80